Brotonne Bridge — VRHO2 — position and weather

sailwx.info

Track history (hours):
 
Tides and Currents Weather Stations Pressure Air Temp Water Temp Dewpoint Dewpoint Depression Visibility Wind Speed Wind Dir Waves Ship Positions

Brotonne Bridge

Last reported at 2017-Dec-10 18:00 UTC. Time now 2017-Dec-11 00:18 UTC.
Position N 38°24' W 022°06'.

Length 268 m; draft 12.3 m.

Type: Ship (hazmat cat A). MMSI: 477961600.

Wind from 270 at 35 knots

Barometer 1017.0 mb
Air temperature 21.0 ° C
Visibility: greater than 10.8 NM
Dewpoint 17.8 ° C
Water temperature 20.0 ° C

Date/timePositionNaut miles runAvg speedWind from/ knotsBaromVisibWave heightAir tempDewpointWater temp
2017-Dec-10 18:00N 38°24' W 022°06'7612.7 270 / 351017.010.8 21.017.820.0
2017-Dec-10 12:00N 38°12' W 020°30'8213.7 350 / 261021.010.8 21.016.120.0
2017-Dec-10 06:00N 37°54' W 018°48'9215.3 310 / 201024.010.8 20.016.720.0
2017-Dec-10 00:00N 37°36' W 016°54'27515.3 300 / 181028.010.8 19.015.719.0
2017-Dec-09 06:00N 36°36' W 011°18'18715.6 030 / 151028.010.8 19.015.719.0
2017-Dec-08 18:00N 36°00' W 007°30'18015.0 320 / 131027.010.8 18.010.619.0
2017-Dec-08 06:00N 36°12' W 003°48'15215.0 320 / 91026.010.8 15.0 9.216.0
2017-Dec-07 19:50N 37°19' W 000°57'516.0
2017-Dec-07 19:29N 37°23' W 000°52'715.7
2017-Dec-07 19:00N 37°27' W 000°45'815.7
2017-Dec-07 18:28N 37°33' W 000°37'715.6
2017-Dec-07 18:00N 37°38' W 000°31'2151.9
2017-Dec-07 18:00N 37°36' W 000°30'918.9 270 / 61028.010.8 17.0 7.017.0
2017-Dec-07 17:30N 37°44' W 000°24'815.3
2017-Dec-07 17:00N 37°50' W 000°18'1215.3
2017-Dec-07 16:13N 37°59' W 000°08'415.2
2017-Dec-07 15:56N 38°02' W 000°04'14915.0
2017-Dec-07 06:00N 40°00' E 001°54'   200 / 121028.010.8 18.010.619.0
2017-Dec-04 10:24N 44°24' E 008°54'0 0.0
2017-Dec-04 10:00N 44°24' E 008°54'0 0.0
2017-Dec-04 09:30N 44°24' E 008°54'0 0.0
2017-Dec-04 09:00N 44°24' E 008°54'0 0.0
2017-Dec-04 08:30N 44°24' E 008°54'0 0.0
2017-Dec-04 08:00N 44°24' E 008°54'0 0.0
2017-Dec-04 07:30N 44°24' E 008°54'0 0.0
2017-Dec-04 07:00N 44°24' E 008°54'0 0.0
2017-Dec-04 06:30N 44°24' E 008°54'0 0.0
2017-Dec-04 06:00N 44°24' E 008°54'0 0.0
2017-Dec-04 05:30N 44°24' E 008°54'0 0.0
2017-Dec-04 05:00N 44°24' E 008°54'1 2.3
2017-Dec-04 04:31N 44°24' E 008°55'3 5.3
2017-Dec-04 04:00N 44°22' E 008°58'4 8.4
2017-Dec-04 03:31N 44°18' E 009°00'510.9
2017-Dec-04 03:01N 44°13' E 009°03'0 0.1
2017-Dec-04 02:30N 44°13' E 009°03'0 0.5
2017-Dec-04 02:01N 44°13' E 009°03'0 0.4
2017-Dec-04 01:31N 44°13' E 009°03'0 0.4
2017-Dec-04 01:00N 44°13' E 009°04'0 0.4
2017-Dec-04 00:31N 44°14' E 009°04'0 0.5
2017-Dec-04 00:00N 44°14' E 009°04'0 0.5
2017-Dec-03 23:31N 44°14' E 009°04'0 0.4
2017-Dec-03 23:00N 44°14' E 009°04'3 6.8
2017-Dec-03 22:30N 44°12' E 009°08'612.6
2017-Dec-03 22:00N 44°10' E 009°16'612.6
2017-Dec-03 21:31N 44°07' E 009°24'612.4
2017-Dec-03 21:01N 44°04' E 009°32'612.5
2017-Dec-03 20:31N 44°02' E 009°40'612.3
2017-Dec-03 20:01N 44°01' E 009°48'4 8.0
2017-Dec-03 19:30N 44°04' E 009°51'3 4.9
2017-Dec-03 18:59N 44°06' E 009°51'0 0.0
2017-Dec-03 18:29N 44°06' E 009°51'0 0.0
2017-Dec-03 17:59N 44°06' E 009°51'0 0.0
2017-Dec-03 17:29N 44°06' E 009°51'0 0.0
2017-Dec-03 16:59N 44°06' E 009°51'0 0.0
2017-Dec-03 16:29N 44°06' E 009°51'0 0.0
2017-Dec-03 15:59N 44°06' E 009°51'0 0.0
2017-Dec-03 15:29N 44°06' E 009°51'0 0.0
2017-Dec-03 14:59N 44°06' E 009°51'0 0.0
2017-Dec-03 14:29N 44°06' E 009°51'0 0.0
2017-Dec-03 13:59N 44°06' E 009°51'0 0.0
2017-Dec-03 13:26N 44°06' E 009°51'0 0.0
2017-Dec-03 12:59N 44°06' E 009°51'0 0.0
2017-Dec-03 12:26N 44°06' E 009°51'0 0.0
2017-Dec-03 11:59N 44°06' E 009°51'0 0.0
2017-Dec-03 11:29N 44°06' E 009°51'0 0.0
2017-Dec-03 10:59N 44°06' E 009°51'0 0.0
2017-Dec-03 10:26N 44°06' E 009°51'0 0.0
2017-Dec-03 09:59N 44°06' E 009°51'0 0.0
2017-Dec-03 09:29N 44°06' E 009°51'0 0.0
2017-Dec-03 08:59N 44°06' E 009°51'0 0.0
2017-Dec-03 08:29N 44°06' E 009°51'0 0.0
2017-Dec-03 07:56N 44°06' E 009°51'0 0.0
2017-Dec-03 07:29N 44°06' E 009°51'0 0.0
2017-Dec-03 06:56N 44°06' E 009°51'0 0.0
2017-Dec-03 06:29N 44°06' E 009°51'0 0.0
2017-Dec-03 05:56N 44°06' E 009°51'0 0.0
2017-Dec-03 05:29N 44°06' E 009°51'0 0.0
2017-Dec-03 04:59N 44°06' E 009°51'0 0.0
2017-Dec-03 04:29N 44°06' E 009°51'0 0.0
2017-Dec-03 03:59N 44°06' E 009°51'0 0.0
2017-Dec-03 03:29N 44°06' E 009°51'0 0.0
2017-Dec-03 02:59N 44°06' E 009°51'0 0.0
2017-Dec-03 02:29N 44°06' E 009°51'0 0.0
2017-Dec-03 01:59N 44°06' E 009°51'0 0.0
2017-Dec-03 01:29N 44°06' E 009°51'0 0.0
2017-Dec-03 00:56N 44°06' E 009°51'0 0.0
2017-Dec-03 00:29N 44°06' E 009°51'0 0.0
2017-Dec-02 23:59N 44°06' E 009°51'0 0.0
2017-Dec-02 23:26N 44°06' E 009°51'0 0.0
2017-Dec-02 22:59N 44°06' E 009°51'0 0.0
2017-Dec-02 22:29N 44°06' E 009°51'0 0.0
2017-Dec-02 21:59N 44°06' E 009°51'0 0.0
2017-Dec-02 21:29N 44°06' E 009°51'0 0.0
2017-Dec-02 20:59N 44°06' E 009°51'1 1.7
2017-Dec-02 20:30N 44°06' E 009°51'4 8.2
2017-Dec-02 20:00N 44°02' E 009°54'2 5.0
2017-Dec-02 19:30N 44°00' E 009°56'611.4
2017-Dec-02 19:00N 43°55' E 009°54'5 9.5
2017-Dec-02 18:30N 43°50' E 009°52'4 7.2
2017-Dec-02 18:00N 43°47' E 009°49'1 1.6
2017-Dec-02 17:30N 43°48' E 009°50'1 1.5
2017-Dec-02 17:00N 43°48' E 009°51'1 1.3
2017-Dec-02 16:30N 43°49' E 009°52'1 1.1
2017-Dec-02 16:00N 43°49' E 009°52'1 1.4
2017-Dec-02 15:30N 43°50' E 009°53'1 1.5
2017-Dec-02 15:00N 43°50' E 009°53'1 1.6
2017-Dec-02 14:30N 43°51' E 009°54'1 1.4
2017-Dec-02 14:00N 43°51' E 009°55'1 1.2
2017-Dec-02 13:26N 43°52' E 009°55'0 1.0
2017-Dec-02 13:00N 43°52' E 009°56'1 1.2
2017-Dec-02 12:30N 43°53' E 009°56'0 0.9
2017-Dec-02 12:00N 43°53' E 009°56'5 9.5
2017-Dec-02 11:30N 43°48' E 009°54'611.9
2017-Dec-02 11:00N 43°42' E 009°53'612.1
2017-Dec-02 10:30N 43°36' E 009°54'612.2
2017-Dec-02 10:00N 43°31' E 009°59'612.3
2017-Dec-02 09:30N 43°31' E 010°08'611.5
2017-Dec-02 09:00N 43°32' E 010°15'3 6.3
2017-Dec-02 08:30N 43°34' E 010°18'0 0.8
2017-Dec-02 07:59N 43°35' E 010°18'0 0.0
2017-Dec-02 07:29N 43°35' E 010°18'0 0.0
2017-Dec-02 06:56N 43°35' E 010°18'0 0.0
2017-Dec-02 06:29N 43°35' E 010°18'0 0.0
2017-Dec-02 05:59N 43°35' E 010°18'0 0.0
2017-Dec-02 05:29N 43°35' E 010°18'0 0.0
2017-Dec-02 04:59N 43°35' E 010°18'0 0.0
2017-Dec-02 04:26N 43°35' E 010°18'0 0.0
2017-Dec-02 03:59N 43°35' E 010°18'0 0.0
2017-Dec-02 03:29N 43°35' E 010°18'0 0.0
2017-Dec-02 02:59N 43°35' E 010°18'0 0.0
2017-Dec-02 02:29N 43°35' E 010°18'0 0.0
2017-Dec-02 01:59N 43°35' E 010°18'0 0.0
2017-Dec-02 01:29N 43°35' E 010°18'0 0.0
2017-Dec-02 00:59N 43°35' E 010°18'0 0.0
2017-Dec-02 00:29N 43°35' E 010°18'0 0.0
2017-Dec-01 23:59N 43°35' E 010°18'0 0.0
2017-Dec-01 23:29N 43°35' E 010°18'0 0.0
2017-Dec-01 22:50N 43°35' E 010°18'0 0.0
2017-Dec-01 22:29N 43°35' E 010°18'0 0.0
2017-Dec-01 21:59N 43°35' E 010°18'0 0.0
2017-Dec-01 21:29N 43°35' E 010°18'0 0.0
2017-Dec-01 20:56N 43°35' E 010°18'0 0.0
2017-Dec-01 20:29N 43°35' E 010°18'0 0.0
2017-Dec-01 19:59N 43°35' E 010°18'0 0.0
2017-Dec-01 19:29N 43°35' E 010°18'0 0.0
2017-Dec-01 18:56N 43°35' E 010°18'0 0.0
2017-Dec-01 18:29N 43°35' E 010°18'0 0.0
2017-Dec-01 17:59N 43°35' E 010°18'0 0.0
2017-Dec-01 17:29N 43°35' E 010°18'0 0.0
2017-Dec-01 16:59N 43°35' E 010°18'0 0.0
2017-Dec-01 16:26N 43°35' E 010°18'0 0.0
2017-Dec-01 15:59N 43°35' E 010°18'0 0.0
2017-Dec-01 15:29N 43°35' E 010°18'0 0.0
2017-Dec-01 14:59N 43°35' E 010°18'0 0.0
2017-Dec-01 14:29N 43°35' E 010°18'0 0.0
2017-Dec-01 13:59N 43°35' E 010°18'0 0.0
2017-Dec-01 13:26N 43°35' E 010°18'0 0.0
2017-Dec-01 12:59N 43°35' E 010°18'0 0.0
2017-Dec-01 12:29N 43°35' E 010°18'0 0.1
2017-Dec-01 12:00N 43°35' E 010°18'2 3.2
2017-Dec-01 11:30N 43°33' E 010°17'2 4.6
2017-Dec-01 11:00N 43°31' E 010°15'3 5.5
2017-Dec-01 10:30N 43°29' E 010°13'5 9.5
2017-Dec-01 10:00N 43°26' E 010°08'5 9.5
2017-Dec-01 09:30N 43°22' E 010°04'714.9
2017-Dec-01 09:00N 43°17' E 009°57'816.4
2017-Dec-01 08:31N 43°15' E 009°46'816.8
2017-Dec-01 08:01N 43°12' E 009°35'816.5
2017-Dec-01 07:31N 43°09' E 009°24'816.2
2017-Dec-01 07:01N 43°06' E 009°14'  
Track history (hours):
 
Tides and Currents Weather Stations Pressure Air Temp Water Temp Dewpoint Dewpoint Depression Visibility Wind Speed Wind Dir Waves Ship Positions

Brotonne Bridge

Last reported at 2017-Dec-10 18:00 UTC. Time now 2017-Dec-11 00:18 UTC.
Position N 38°24' W 022°06'.

Length 268 m; draft 12.3 m.

Type: Ship (hazmat cat A). MMSI: 477961600.

Wind from 270 at 35 knots

Barometer 1017.0 mb
Air temperature 21.0 ° C
Visibility: greater than 10.8 NM
Dewpoint 17.8 ° C
Water temperature 20.0 ° C

Date/timePositionNaut miles runAvg speedWind from/ knotsBaromVisibWave heightAir tempDewpointWater temp
2017-Dec-10 18:00N 38°24' W 022°06'7612.7 270 / 351017.010.8 21.017.820.0
2017-Dec-10 12:00N 38°12' W 020°30'8213.7 350 / 261021.010.8 21.016.120.0
2017-Dec-10 06:00N 37°54' W 018°48'9215.3 310 / 201024.010.8 20.016.720.0
2017-Dec-10 00:00N 37°36' W 016°54'27515.3 300 / 181028.010.8 19.015.719.0
2017-Dec-09 06:00N 36°36' W 011°18'18715.6 030 / 151028.010.8 19.015.719.0
2017-Dec-08 18:00N 36°00' W 007°30'18015.0 320 / 131027.010.8 18.010.619.0
2017-Dec-08 06:00N 36°12' W 003°48'15215.0 320 / 91026.010.8 15.0 9.216.0
2017-Dec-07 19:50N 37°19' W 000°57'516.0
2017-Dec-07 19:29N 37°23' W 000°52'715.7
2017-Dec-07 19:00N 37°27' W 000°45'815.7
2017-Dec-07 18:28N 37°33' W 000°37'715.6
2017-Dec-07 18:00N 37°38' W 000°31'2151.9
2017-Dec-07 18:00N 37°36' W 000°30'918.9 270 / 61028.010.8 17.0 7.017.0
2017-Dec-07 17:30N 37°44' W 000°24'815.3
2017-Dec-07 17:00N 37°50' W 000°18'1215.3
2017-Dec-07 16:13N 37°59' W 000°08'415.2
2017-Dec-07 15:56N 38°02' W 000°04'14915.0
2017-Dec-07 06:00N 40°00' E 001°54'   200 / 121028.010.8 18.010.619.0
2017-Dec-04 10:24N 44°24' E 008°54'0 0.0
2017-Dec-04 10:00N 44°24' E 008°54'0 0.0
2017-Dec-04 09:30N 44°24' E 008°54'0 0.0
2017-Dec-04 09:00N 44°24' E 008°54'0 0.0
2017-Dec-04 08:30N 44°24' E 008°54'0 0.0
2017-Dec-04 08:00N 44°24' E 008°54'0 0.0
2017-Dec-04 07:30N 44°24' E 008°54'0 0.0
2017-Dec-04 07:00N 44°24' E 008°54'0 0.0
2017-Dec-04 06:30N 44°24' E 008°54'0 0.0
2017-Dec-04 06:00N 44°24' E 008°54'0 0.0
2017-Dec-04 05:30N 44°24' E 008°54'0 0.0
2017-Dec-04 05:00N 44°24' E 008°54'1 2.3
2017-Dec-04 04:31N 44°24' E 008°55'3 5.3
2017-Dec-04 04:00N 44°22' E 008°58'4 8.4
2017-Dec-04 03:31N 44°18' E 009°00'510.9
2017-Dec-04 03:01N 44°13' E 009°03'0 0.1
2017-Dec-04 02:30N 44°13' E 009°03'0 0.5
2017-Dec-04 02:01N 44°13' E 009°03'0 0.4
2017-Dec-04 01:31N 44°13' E 009°03'0 0.4
2017-Dec-04 01:00N 44°13' E 009°04'0 0.4
2017-Dec-04 00:31N 44°14' E 009°04'0 0.5
2017-Dec-04 00:00N 44°14' E 009°04'0 0.5
2017-Dec-03 23:31N 44°14' E 009°04'0 0.4
2017-Dec-03 23:00N 44°14' E 009°04'3 6.8
2017-Dec-03 22:30N 44°12' E 009°08'612.6
2017-Dec-03 22:00N 44°10' E 009°16'612.6
2017-Dec-03 21:31N 44°07' E 009°24'612.4
2017-Dec-03 21:01N 44°04' E 009°32'612.5
2017-Dec-03 20:31N 44°02' E 009°40'612.3
2017-Dec-03 20:01N 44°01' E 009°48'4 8.0
2017-Dec-03 19:30N 44°04' E 009°51'3 4.9
2017-Dec-03 18:59N 44°06' E 009°51'0 0.0
2017-Dec-03 18:29N 44°06' E 009°51'0 0.0
2017-Dec-03 17:59N 44°06' E 009°51'0 0.0
2017-Dec-03 17:29N 44°06' E 009°51'0 0.0
2017-Dec-03 16:59N 44°06' E 009°51'0 0.0
2017-Dec-03 16:29N 44°06' E 009°51'0 0.0
2017-Dec-03 15:59N 44°06' E 009°51'0 0.0
2017-Dec-03 15:29N 44°06' E 009°51'0 0.0
2017-Dec-03 14:59N 44°06' E 009°51'0 0.0
2017-Dec-03 14:29N 44°06' E 009°51'0 0.0
2017-Dec-03 13:59N 44°06' E 009°51'0 0.0
2017-Dec-03 13:26N 44°06' E 009°51'0 0.0
2017-Dec-03 12:59N 44°06' E 009°51'0 0.0
2017-Dec-03 12:26N 44°06' E 009°51'0 0.0
2017-Dec-03 11:59N 44°06' E 009°51'0 0.0
2017-Dec-03 11:29N 44°06' E 009°51'0 0.0
2017-Dec-03 10:59N 44°06' E 009°51'0 0.0
2017-Dec-03 10:26N 44°06' E 009°51'0 0.0
2017-Dec-03 09:59N 44°06' E 009°51'0 0.0
2017-Dec-03 09:29N 44°06' E 009°51'0 0.0
2017-Dec-03 08:59N 44°06' E 009°51'0 0.0
2017-Dec-03 08:29N 44°06' E 009°51'0 0.0
2017-Dec-03 07:56N 44°06' E 009°51'0 0.0
2017-Dec-03 07:29N 44°06' E 009°51'0 0.0
2017-Dec-03 06:56N 44°06' E 009°51'0 0.0
2017-Dec-03 06:29N 44°06' E 009°51'0 0.0
2017-Dec-03 05:56N 44°06' E 009°51'0 0.0
2017-Dec-03 05:29N 44°06' E 009°51'0 0.0
2017-Dec-03 04:59N 44°06' E 009°51'0 0.0
2017-Dec-03 04:29N 44°06' E 009°51'0 0.0
2017-Dec-03 03:59N 44°06' E 009°51'0 0.0
2017-Dec-03 03:29N 44°06' E 009°51'0 0.0
2017-Dec-03 02:59N 44°06' E 009°51'0 0.0
2017-Dec-03 02:29N 44°06' E 009°51'0 0.0
2017-Dec-03 01:59N 44°06' E 009°51'0 0.0
2017-Dec-03 01:29N 44°06' E 009°51'0 0.0
2017-Dec-03 00:56N 44°06' E 009°51'0 0.0
2017-Dec-03 00:29N 44°06' E 009°51'0 0.0
2017-Dec-02 23:59N 44°06' E 009°51'0 0.0
2017-Dec-02 23:26N 44°06' E 009°51'0 0.0
2017-Dec-02 22:59N 44°06' E 009°51'0 0.0
2017-Dec-02 22:29N 44°06' E 009°51'0 0.0
2017-Dec-02 21:59N 44°06' E 009°51'0 0.0
2017-Dec-02 21:29N 44°06' E 009°51'0 0.0
2017-Dec-02 20:59N 44°06' E 009°51'1 1.7
2017-Dec-02 20:30N 44°06' E 009°51'4 8.2
2017-Dec-02 20:00N 44°02' E 009°54'2 5.0
2017-Dec-02 19:30N 44°00' E 009°56'611.4
2017-Dec-02 19:00N 43°55' E 009°54'5 9.5
2017-Dec-02 18:30N 43°50' E 009°52'4 7.2
2017-Dec-02 18:00N 43°47' E 009°49'1 1.6
2017-Dec-02 17:30N 43°48' E 009°50'1 1.5
2017-Dec-02 17:00N 43°48' E 009°51'1 1.3
2017-Dec-02 16:30N 43°49' E 009°52'1 1.1
2017-Dec-02 16:00N 43°49' E 009°52'1 1.4
2017-Dec-02 15:30N 43°50' E 009°53'1 1.5
2017-Dec-02 15:00N 43°50' E 009°53'1 1.6
2017-Dec-02 14:30N 43°51' E 009°54'1 1.4
2017-Dec-02 14:00N 43°51' E 009°55'1 1.2
2017-Dec-02 13:26N 43°52' E 009°55'0 1.0
2017-Dec-02 13:00N 43°52' E 009°56'1 1.2
2017-Dec-02 12:30N 43°53' E 009°56'0 0.9
2017-Dec-02 12:00N 43°53' E 009°56'5 9.5
2017-Dec-02 11:30N 43°48' E 009°54'611.9
2017-Dec-02 11:00N 43°42' E 009°53'612.1
2017-Dec-02 10:30N 43°36' E 009°54'612.2
2017-Dec-02 10:00N 43°31' E 009°59'612.3
2017-Dec-02 09:30N 43°31' E 010°08'611.5
2017-Dec-02 09:00N 43°32' E 010°15'3 6.3
2017-Dec-02 08:30N 43°34' E 010°18'0 0.8
2017-Dec-02 07:59N 43°35' E 010°18'0 0.0
2017-Dec-02 07:29N 43°35' E 010°18'0 0.0
2017-Dec-02 06:56N 43°35' E 010°18'0 0.0
2017-Dec-02 06:29N 43°35' E 010°18'0 0.0
2017-Dec-02 05:59N 43°35' E 010°18'0 0.0
2017-Dec-02 05:29N 43°35' E 010°18'0 0.0
2017-Dec-02 04:59N 43°35' E 010°18'0 0.0
2017-Dec-02 04:26N 43°35' E 010°18'0 0.0
2017-Dec-02 03:59N 43°35' E 010°18'0 0.0
2017-Dec-02 03:29N 43°35' E 010°18'0 0.0
2017-Dec-02 02:59N 43°35' E 010°18'0 0.0
2017-Dec-02 02:29N 43°35' E 010°18'0 0.0
2017-Dec-02 01:59N 43°35' E 010°18'0 0.0
2017-Dec-02 01:29N 43°35' E 010°18'0 0.0
2017-Dec-02 00:59N 43°35' E 010°18'0 0.0
2017-Dec-02 00:29N 43°35' E 010°18'0 0.0
2017-Dec-01 23:59N 43°35' E 010°18'0 0.0
2017-Dec-01 23:29N 43°35' E 010°18'0 0.0
2017-Dec-01 22:50N 43°35' E 010°18'0 0.0
2017-Dec-01 22:29N 43°35' E 010°18'0 0.0
2017-Dec-01 21:59N 43°35' E 010°18'0 0.0
2017-Dec-01 21:29N 43°35' E 010°18'0 0.0
2017-Dec-01 20:56N 43°35' E 010°18'0 0.0
2017-Dec-01 20:29N 43°35' E 010°18'0 0.0
2017-Dec-01 19:59N 43°35' E 010°18'0 0.0
2017-Dec-01 19:29N 43°35' E 010°18'0 0.0
2017-Dec-01 18:56N 43°35' E 010°18'0 0.0
2017-Dec-01 18:29N 43°35' E 010°18'0 0.0
2017-Dec-01 17:59N 43°35' E 010°18'0 0.0
2017-Dec-01 17:29N 43°35' E 010°18'0 0.0
2017-Dec-01 16:59N 43°35' E 010°18'0 0.0
2017-Dec-01 16:26N 43°35' E 010°18'0 0.0
2017-Dec-01 15:59N 43°35' E 010°18'0 0.0
2017-Dec-01 15:29N 43°35' E 010°18'0 0.0
2017-Dec-01 14:59N 43°35' E 010°18'0 0.0
2017-Dec-01 14:29N 43°35' E 010°18'0 0.0
2017-Dec-01 13:59N 43°35' E 010°18'0 0.0
2017-Dec-01 13:26N 43°35' E 010°18'0 0.0
2017-Dec-01 12:59N 43°35' E 010°18'0 0.0
2017-Dec-01 12:29N 43°35' E 010°18'0 0.1
2017-Dec-01 12:00N 43°35' E 010°18'2 3.2
2017-Dec-01 11:30N 43°33' E 010°17'2 4.6
2017-Dec-01 11:00N 43°31' E 010°15'3 5.5
2017-Dec-01 10:30N 43°29' E 010°13'5 9.5
2017-Dec-01 10:00N 43°26' E 010°08'5 9.5
2017-Dec-01 09:30N 43°22' E 010°04'714.9
2017-Dec-01 09:00N 43°17' E 009°57'816.4
2017-Dec-01 08:31N 43°15' E 009°46'816.8
2017-Dec-01 08:01N 43°12' E 009°35'816.5
2017-Dec-01 07:31N 43°09' E 009°24'816.2
2017-Dec-01 07:01N 43°06' E 009°14'  

Dump ship's entire track history